createdAt,value
2017-05-07T00:00:02.631Z,100086.91
2017-05-07T00:02:30.058Z,100093.25
2017-05-07T00:04:57.521Z,100085.20
2017-05-07T00:07:25.053Z,100094.42
2017-05-07T00:09:52.489Z,100093.41
2017-05-07T00:12:19.945Z,100093.12
2017-05-07T00:14:47.374Z,100102.50
2017-05-07T00:17:14.797Z,100099.95
2017-05-07T00:19:42.239Z,100108.63
2017-05-07T00:22:09.740Z,100110.93
2017-05-07T00:24:37.219Z,100103.88
2017-05-07T00:27:04.658Z,100103.05
2017-05-07T00:29:32.098Z,100110.30
2017-05-07T00:31:59.533Z,100101.84
2017-05-07T00:34:27.023Z,100107.20
2017-05-07T00:36:54.453Z,100103.60
2017-05-07T00:39:21.882Z,100102.72
2017-05-07T00:41:49.337Z,100100.23
2017-05-07T00:44:16.769Z,100097.73
2017-05-07T00:46:44.204Z,100102.42
2017-05-07T00:49:11.662Z,100105.73
2017-05-07T00:51:39.098Z,100103.92
2017-05-07T00:54:06.530Z,100109.16
2017-05-07T00:56:33.993Z,100105.56
2017-05-07T00:59:01.426Z,100110.67
2017-05-07T01:01:28.874Z,100116.99
2017-05-07T01:03:56.331Z,100119.46
2017-05-07T01:06:23.774Z,100114.61
2017-05-07T01:08:51.208Z,100109.06
2017-05-07T01:11:18.699Z,100116.64
2017-05-07T01:13:46.139Z,100112.58
2017-05-07T01:16:13.581Z,100118.23
2017-05-07T01:18:41.056Z,100117.52
2017-05-07T01:21:08.492Z,100117.34
2017-05-07T01:23:35.925Z,100120.48
2017-05-07T01:26:03.378Z,100121.61
2017-05-07T01:28:30.810Z,100122.27
2017-05-07T01:30:58.250Z,100120.72
2017-05-07T01:33:25.714Z,100122.23
2017-05-07T01:35:53.150Z,100119.30
2017-05-07T01:38:20.581Z,100127.29
2017-05-07T01:40:53.089Z,100124.23
2017-05-07T01:43:20.528Z,100121.17
2017-05-07T01:45:47.965Z,100126.41
2017-05-07T01:48:15.421Z,100119.36
2017-05-07T01:50:42.854Z,100128.73
2017-05-07T01:53:10.296Z,100124.00
2017-05-07T01:55:37.743Z,100126.72
2017-05-07T01:58:05.179Z,100130.44
2017-05-07T02:00:32.609Z,100130.69
2017-05-07T02:03:00.074Z,100126.38
2017-05-07T02:05:27.515Z,100124.82
2017-05-07T02:07:54.953Z,100127.14
2017-05-07T02:10:22.402Z,100125.89
2017-05-07T02:12:49.842Z,100123.25
2017-05-07T02:15:17.276Z,100124.46
2017-05-07T02:17:44.742Z,100127.34
2017-05-07T02:20:12.185Z,100131.91
2017-05-07T02:22:39.622Z,100129.81
2017-05-07T02:25:07.079Z,100125.50
2017-05-07T02:27:34.514Z,100127.55
2017-05-07T02:30:01.945Z,100123.80
2017-05-07T02:32:29.401Z,100128.31
2017-05-07T02:34:56.836Z,100128.02
2017-05-07T02:37:24.277Z,100124.42
2017-05-07T02:39:51.734Z,100127.72
2017-05-07T02:42:19.173Z,100120.10
2017-05-07T02:44:46.615Z,100123.95
2017-05-07T02:47:14.069Z,100125.45
2017-05-07T02:49:41.501Z,100127.13
2017-05-07T02:52:08.940Z,100126.30
2017-05-07T02:54:36.400Z,100119.52
2017-05-07T02:57:03.858Z,100128.22
2017-05-07T02:59:31.294Z,100124.73
2017-05-07T03:01:58.755Z,100124.20
2017-05-07T03:04:26.194Z,100127.08
2017-05-07T03:06:53.632Z,100124.86
2017-05-07T03:09:21.086Z,100130.25
2017-05-07T03:11:48.529Z,100128.02
2017-05-07T03:14:15.981Z,100128.45
2017-05-07T03:16:43.446Z,100126.77
2017-05-07T03:19:10.886Z,100131.45
2017-05-07T03:21:38.318Z,100137.52
2017-05-07T03:24:05.770Z,100131.03
2017-05-07T03:26:33.210Z,100133.50
2017-05-07T03:29:00.641Z,100135.55
2017-05-07T03:31:28.113Z,100134.28
2017-05-07T03:33:55.574Z,100129.97
2017-05-07T03:36:23.012Z,100129.67
2017-05-07T03:38:50.462Z,100130.76
2017-05-07T03:41:17.894Z,100126.32
2017-05-07T03:43:45.345Z,100129.36
2017-05-07T03:46:12.802Z,100129.90
2017-05-07T03:48:40.236Z,100127.80
2017-05-07T03:51:07.676Z,100127.50
2017-05-07T03:53:35.122Z,100133.03
2017-05-07T03:56:02.569Z,100133.98
2017-05-07T03:58:30.007Z,100140.89
2017-05-07T04:00:57.466Z,100133.98
2017-05-07T04:03:24.906Z,100131.23
2017-05-07T04:05:52.347Z,100131.77
2017-05-07T04:08:19.796Z,100136.33
2017-05-07T04:10:47.231Z,100140.47
2017-05-07T04:13:14.670Z,100138.13
2017-05-07T04:15:42.124Z,100138.67
2017-05-07T04:18:09.557Z,100139.21
2017-05-07T04:20:37.009Z,100135.61
2017-05-07T04:23:04.461Z,100135.31
2017-05-07T04:25:31.897Z,100136.81
2017-05-07T04:27:59.331Z,100131.72
2017-05-07T04:30:26.777Z,100138.20
2017-05-07T04:32:54.210Z,100142.34
2017-05-07T04:35:21.648Z,100141.80
2017-05-07T04:37:49.116Z,100142.94
2017-05-07T04:40:16.563Z,100141.44
2017-05-07T04:42:43.994Z,100143.95
2017-05-07T04:45:11.454Z,100150.48
2017-05-07T04:47:38.889Z,100146.19
2017-05-07T04:50:06.329Z,100152.30
2017-05-07T04:52:33.797Z,100155.24
2017-05-07T04:55:01.238Z,100157.09
2017-05-07T04:57:28.667Z,100156.60
2017-05-07T04:59:56.130Z,100155.00
2017-05-07T05:02:23.569Z,100149.52
2017-05-07T05:04:51.018Z,100158.70
2017-05-07T05:07:18.481Z,100159.85
2017-05-07T05:09:45.921Z,100166.39
2017-05-07T05:12:13.354Z,100167.82
2017-05-07T05:14:40.805Z,100174.77
2017-05-07T05:17:08.246Z,100175.39
2017-05-07T05:19:51.447Z,100183.60
2017-05-07T05:22:19.522Z,100182.98
2017-05-07T05:25:02.558Z,100184.13
2017-05-07T05:27:45.405Z,100181.78
2017-05-07T05:30:27.756Z,100183.16
2017-05-07T05:32:55.194Z,100183.88
2017-05-07T05:35:22.625Z,100189.84
2017-05-07T05:37:50.081Z,100191.64
2017-05-07T05:40:17.518Z,100187.79
2017-05-07T05:42:44.949Z,100194.45
2017-05-07T05:45:12.417Z,100193.23
2017-05-07T05:47:39.867Z,100192.16
2017-05-07T05:50:07.309Z,100197.73
2017-05-07T05:52:34.770Z,100198.41
2017-05-07T05:55:02.210Z,100200.68
2017-05-07T05:57:29.656Z,100198.63
2017-05-07T05:59:57.129Z,100202.41
2017-05-07T06:02:24.580Z,100207.44
2017-05-07T06:04:52.025Z,100209.80
2017-05-07T06:07:19.477Z,100211.48
2017-05-07T06:09:46.938Z,100210.69
2017-05-07T06:12:14.375Z,100212.36
2017-05-07T06:14:41.831Z,100212.95
2017-05-07T06:17:09.266Z,100213.67
2017-05-07T06:19:36.706Z,100217.98
2017-05-07T06:22:04.162Z,100224.79
2017-05-07T06:24:31.599Z,100214.73
2017-05-07T06:26:59.034Z,100219.77
2017-05-07T06:29:26.506Z,100218.64
2017-05-07T06:31:53.942Z,100215.47
2017-05-07T06:34:21.370Z,100216.06
2017-05-07T06:36:48.838Z,100223.44
2017-05-07T06:39:16.281Z,100222.09
2017-05-07T06:41:43.717Z,100222.53
2017-05-07T06:44:11.177Z,100220.35
2017-05-07T06:46:38.615Z,100230.20
2017-05-07T06:49:06.054Z,100233.68
2017-05-07T06:51:33.506Z,100232.89
2017-05-07T06:54:00.945Z,100235.70
2017-05-07T06:56:28.374Z,100237.37
2017-05-07T06:58:55.825Z,100241.12
2017-05-07T07:01:23.258Z,100239.91
2017-05-07T07:03:50.698Z,100241.04
2017-05-07T07:06:18.151Z,100244.94
2017-05-07T07:08:45.595Z,100239.98
2017-05-07T07:11:13.034Z,100244.56
2017-05-07T07:13:40.494Z,100239.20
2017-05-07T07:16:07.929Z,100246.25
2017-05-07T07:18:35.380Z,100245.45
2017-05-07T07:21:02.833Z,100247.30
2017-05-07T07:23:30.288Z,100247.89
2017-05-07T07:25:57.722Z,100247.51
2017-05-07T07:28:25.203Z,100252.08
2017-05-07T07:30:52.638Z,100253.34
2017-05-07T07:33:20.078Z,100267.84
2017-05-07T07:35:47.534Z,100256.36
2017-05-07T07:38:14.978Z,100265.75
2017-05-07T07:40:42.426Z,100271.83
2017-05-07T07:43:09.890Z,100265.16
2017-05-07T07:45:37.334Z,100269.44
2017-05-07T07:48:04.773Z,100270.23
2017-05-07T07:50:32.242Z,100265.66
2017-05-07T07:52:59.687Z,100264.82
2017-05-07T07:55:27.139Z,100272.45
2017-05-07T07:57:54.601Z,100278.53
2017-05-07T08:00:22.039Z,100275.34
2017-05-07T08:02:49.476Z,100271.91
2017-05-07T08:05:16.941Z,100274.97
2017-05-07T08:07:44.379Z,100283.69
2017-05-07T08:10:11.828Z,100280.63
2017-05-07T08:12:39.441Z,100278.70
2017-05-07T08:15:06.878Z,100281.34
2017-05-07T08:17:34.313Z,100290.91
2017-05-07T08:20:01.778Z,100286.62
2017-05-07T08:22:29.214Z,100286.38
2017-05-07T08:24:57.642Z,100290.53
2017-05-07T08:27:25.114Z,100291.55
2017-05-07T08:29:52.549Z,100291.59
2017-05-07T08:32:23.099Z,100299.09
2017-05-07T08:34:50.554Z,100299.02
2017-05-07T08:37:18.016Z,100303.17
2017-05-07T08:39:45.449Z,100295.88
2017-05-07T08:42:12.927Z,100310.23
2017-05-07T08:44:40.383Z,100309.84
2017-05-07T08:47:07.854Z,100311.37
2017-05-07T08:49:35.305Z,100316.78
2017-05-07T08:52:02.751Z,100315.27
2017-05-07T08:54:30.208Z,100319.30
2017-05-07T08:56:57.677Z,100317.53
2017-05-07T08:59:25.119Z,100322.41
2017-05-07T09:01:52.572Z,100321.61
2017-05-07T09:04:20.045Z,100330.62
2017-05-07T09:06:47.485Z,100329.92
2017-05-07T09:09:14.926Z,100334.24
2017-05-07T09:15:00.521Z,100336.80
2017-05-07T09:17:49.622Z,100334.49
2017-05-07T09:20:17.061Z,100337.14
2017-05-07T09:22:44.494Z,100335.13
2017-05-07T09:25:11.958Z,100339.62
2017-05-07T09:27:39.410Z,100339.41
2017-05-07T09:30:06.854Z,100339.73
2017-05-07T09:32:34.310Z,100343.80
2017-05-07T09:35:01.755Z,100346.19
2017-05-07T09:37:29.194Z,100345.94
2017-05-07T09:40:00.323Z,100350.65
2017-05-07T09:42:27.781Z,100351.78
2017-05-07T09:44:56.166Z,100351.66
2017-05-07T09:47:23.613Z,100346.95
2017-05-07T09:49:57.215Z,100355.27
2017-05-07T09:52:30.155Z,100352.08
2017-05-07T09:54:57.627Z,100349.89
2017-05-07T09:57:25.070Z,100352.70
2017-05-07T09:59:52.511Z,100360.62
2017-05-07T10:02:20.057Z,100358.58
2017-05-07T10:04:47.606Z,100358.61
2017-05-07T10:07:15.051Z,100361.97
2017-05-07T10:09:42.503Z,100360.75
2017-05-07T10:12:10.027Z,100364.65
2017-05-07T10:14:37.497Z,100360.50
2017-05-07T10:17:04.962Z,100364.02
2017-05-07T10:19:32.461Z,100363.51
2017-05-07T10:22:04.049Z,100371.16
2017-05-07T10:24:31.495Z,100368.03
2017-05-07T10:26:58.938Z,100371.97
2017-05-07T10:29:26.374Z,100378.65
2017-05-07T10:31:53.858Z,100385.48
2017-05-07T10:34:21.317Z,100376.36
2017-05-07T10:36:48.753Z,100382.91
2017-05-07T10:39:16.205Z,100381.69
2017-05-07T10:41:43.685Z,100387.02
2017-05-07T10:44:12.136Z,100387.76
2017-05-07T10:46:39.574Z,100379.86
2017-05-07T10:49:07.013Z,100380.57
2017-05-07T10:51:34.440Z,100381.98
2017-05-07T10:54:01.881Z,100385.60
2017-05-07T10:56:29.346Z,100379.09
2017-05-07T10:58:56.770Z,100384.92
2017-05-07T11:01:24.198Z,100373.86
2017-05-07T11:03:51.645Z,100379.83
2017-05-07T11:06:19.082Z,100382.77
2017-05-07T11:08:46.505Z,100377.92
2017-05-07T11:11:13.953Z,100377.66
2017-05-07T11:13:41.375Z,100373.95
2017-05-07T11:16:08.801Z,100374.41
2017-05-07T11:18:36.243Z,100376.95
2017-05-07T11:21:03.662Z,100376.43
2017-05-07T11:23:31.093Z,100380.63
2017-05-07T11:25:58.529Z,100373.42
2017-05-07T11:28:25.958Z,100381.75
2017-05-07T11:30:53.378Z,100382.06
2017-05-07T11:33:20.823Z,100382.52
2017-05-07T11:35:48.262Z,100381.16
2017-05-07T11:38:15.680Z,100388.90
2017-05-07T11:40:43.129Z,100378.09
2017-05-07T11:43:10.546Z,100381.98
2017-05-07T11:45:37.970Z,100378.66
2017-05-07T11:48:05.454Z,100385.47
2017-05-07T11:50:32.865Z,100373.69
2017-05-07T11:53:00.281Z,100373.98
2017-05-07T11:55:27.721Z,100374.81
2017-05-07T11:57:55.132Z,100373.69
2017-05-07T12:00:22.562Z,100376.88
2017-05-07T12:02:50.990Z,100374.37
2017-05-07T12:05:18.418Z,100365.59
2017-05-07T12:07:45.833Z,100374.48
2017-05-07T12:10:13.275Z,100374.84
2017-05-07T12:12:40.704Z,100377.17
2017-05-07T12:15:08.141Z,100372.69
2017-05-07T12:17:39.529Z,100373.78
2017-05-07T12:20:06.963Z,100372.95
2017-05-07T12:22:34.381Z,100378.92
2017-05-07T12:25:01.835Z,100384.50
2017-05-07T12:27:29.257Z,100377.56
2017-05-07T12:29:56.691Z,100377.84
2017-05-07T12:32:24.128Z,100383.06
2017-05-07T12:34:51.550Z,100380.34
2017-05-07T12:37:18.978Z,100383.17
2017-05-07T12:39:48.389Z,100384.92
2017-05-07T12:42:15.826Z,100385.67
2017-05-07T12:44:43.245Z,100381.55
2017-05-07T12:47:10.680Z,100378.14
2017-05-07T12:49:38.098Z,100371.11
2017-05-07T12:52:05.528Z,100379.06
2017-05-07T12:54:32.974Z,100377.27
2017-05-07T12:57:00.394Z,100379.96
2017-05-07T12:59:27.852Z,100375.81
2017-05-07T13:01:55.306Z,100373.89
2017-05-07T13:04:22.733Z,100378.66
2017-05-07T13:06:50.880Z,100374.09
2017-05-07T13:09:18.327Z,100374.52
2017-05-07T13:11:45.749Z,100376.63
2017-05-07T13:14:13.178Z,100377.60
2017-05-07T13:16:40.635Z,100375.81
2017-05-07T13:19:08.069Z,100369.58
2017-05-07T13:21:35.498Z,100373.22
2017-05-07T13:24:02.945Z,100372.50
2017-05-07T13:26:30.375Z,100372.80
2017-05-07T13:28:57.809Z,100371.43
2017-05-07T13:31:25.262Z,100372.84
2017-05-07T13:33:52.697Z,100370.49
2017-05-07T13:36:20.229Z,100373.13
2017-05-07T13:38:47.721Z,100367.44
2017-05-07T13:41:15.228Z,100365.52
2017-05-07T13:43:42.738Z,100362.58
2017-05-07T13:46:10.205Z,100365.23
2017-05-07T13:48:37.650Z,100370.50
2017-05-07T13:51:05.165Z,100369.13
2017-05-07T13:53:32.618Z,100369.13
2017-05-07T13:56:00.041Z,100376.50
2017-05-07T13:58:28.441Z,100367.30
2017-05-07T14:00:55.890Z,100369.68
2017-05-07T14:03:23.322Z,100368.84
2017-05-07T14:05:50.754Z,100371.48
2017-05-07T14:08:18.211Z,100367.60
2017-05-07T14:10:47.583Z,100363.16
2017-05-07T14:13:15.006Z,100365.67
2017-05-07T14:15:43.012Z,100362.63
2017-05-07T14:18:10.450Z,100355.68
2017-05-07T14:20:37.882Z,100356.37
2017-05-07T14:23:06.334Z,100357.06
2017-05-07T14:25:34.298Z,100356.48
2017-05-07T14:28:01.731Z,100358.02
2017-05-07T14:30:29.187Z,100355.09
2017-05-07T14:32:56.626Z,100361.74
2017-05-07T14:35:24.058Z,100362.16
2017-05-07T14:37:53.454Z,100365.20
2017-05-07T14:40:20.882Z,100362.70
2017-05-07T14:42:48.309Z,100354.89
2017-05-07T14:45:15.775Z,100365.16
2017-05-07T14:47:43.202Z,100360.42
2017-05-07T14:50:17.445Z,100361.36
2017-05-07T14:52:44.874Z,100360.50
2017-05-07T14:55:12.309Z,100368.23
2017-05-07T14:57:39.765Z,100363.22
2017-05-07T15:00:07.193Z,100357.48
2017-05-07T15:02:34.646Z,100363.42
2017-05-07T15:05:02.102Z,100358.09
2017-05-07T15:07:29.549Z,100369.47
2017-05-07T15:09:57.021Z,100364.30
2017-05-07T15:12:25.410Z,100368.45
2017-05-07T15:14:52.839Z,100368.40
2017-05-07T15:17:20.849Z,100363.34
2017-05-07T15:19:48.294Z,100364.17
2017-05-07T15:22:15.765Z,100358.70
2017-05-07T15:24:43.207Z,100360.36
2017-05-07T15:27:10.678Z,100359.05
2017-05-07T15:29:38.131Z,100357.93
2017-05-07T15:32:13.638Z,100361.23
2017-05-07T15:34:41.091Z,100359.81
2017-05-07T15:37:08.530Z,100353.55
2017-05-07T15:39:35.990Z,100358.53
2017-05-07T15:42:03.423Z,100359.20
2017-05-07T15:44:30.850Z,100366.15
2017-05-07T15:46:58.305Z,100360.99
2017-05-07T15:49:25.737Z,100360.41
2017-05-07T15:51:53.182Z,100365.94
2017-05-07T15:54:20.677Z,100360.94
2017-05-07T15:56:48.122Z,100363.69
2017-05-07T15:59:21.527Z,100361.30
2017-05-07T16:01:50.921Z,100365.27
2017-05-07T16:04:18.374Z,100365.20
2017-05-07T16:06:45.832Z,100369.59
2017-05-07T16:09:13.265Z,100367.63
2017-05-07T16:11:40.718Z,100366.80
2017-05-07T16:14:08.172Z,100371.05
2017-05-07T16:16:47.707Z,100370.31
2017-05-07T16:19:30.046Z,100371.80
2017-05-07T16:25:30.770Z,100369.21
2017-05-07T16:28:01.125Z,100376.11
2017-05-07T16:30:29.277Z,100373.39
2017-05-07T16:33:18.257Z,100368.91
2017-05-07T16:35:45.694Z,100373.83
2017-05-07T16:38:13.141Z,100374.47
2017-05-07T16:40:40.605Z,100377.37
2017-05-07T16:43:08.058Z,100368.30
2017-05-07T16:45:35.486Z,100369.36
2017-05-07T16:48:02.953Z,100369.77
2017-05-07T16:50:30.381Z,100368.34
2017-05-07T16:52:57.831Z,100371.63
2017-05-07T16:55:25.287Z,100374.20
2017-05-07T16:57:52.721Z,100377.09
2017-05-07T17:00:20.176Z,100380.62
2017-05-07T17:02:53.062Z,100384.02
2017-05-07T17:05:22.512Z,100387.45
2017-05-07T17:07:49.958Z,100388.09
2017-05-07T17:10:17.430Z,100385.53
2017-05-07T17:12:44.882Z,100393.67
2017-05-07T17:15:12.330Z,100395.56
2017-05-07T17:17:39.812Z,100390.65
2017-05-07T17:20:07.258Z,100398.91
2017-05-07T17:22:34.710Z,100393.78
2017-05-07T17:25:02.187Z,100390.42
2017-05-07T17:27:29.626Z,100396.47
2017-05-07T17:29:57.061Z,100394.61
2017-05-07T17:32:24.527Z,100387.39
2017-05-07T17:34:52.093Z,100396.73
2017-05-07T17:37:19.530Z,100394.05
2017-05-07T17:39:46.987Z,100384.86
2017-05-07T17:42:14.422Z,100390.51
2017-05-07T17:44:41.859Z,100387.40
2017-05-07T17:47:09.325Z,100386.09
2017-05-07T17:49:36.773Z,100389.94
2017-05-07T17:52:04.211Z,100394.04
2017-05-07T17:54:31.687Z,100392.02
2017-05-07T17:56:59.135Z,100394.72
2017-05-07T17:59:26.582Z,100397.02
2017-05-07T18:01:54.034Z,100401.24
2017-05-07T18:04:21.501Z,100402.31
2017-05-07T18:06:48.959Z,100400.46
2017-05-07T18:09:16.425Z,100404.81
2017-05-07T18:11:43.872Z,100410.41
2017-05-07T18:14:11.329Z,100405.83
2017-05-07T18:16:38.794Z,100410.34
2017-05-07T18:19:06.229Z,100405.72
2017-05-07T18:21:33.711Z,100418.95
2017-05-07T18:24:01.166Z,100417.40
2017-05-07T18:26:28.604Z,100418.34
2017-05-07T18:28:56.051Z,100420.09
2017-05-07T18:31:23.509Z,100424.61
2017-05-07T18:33:50.955Z,100426.77
2017-05-07T18:36:18.393Z,100425.22
2017-05-07T18:38:45.869Z,100430.73
2017-05-07T18:41:13.314Z,100435.66
2017-05-07T18:43:40.745Z,100428.96
2017-05-07T18:46:08.201Z,100433.77
2017-05-07T18:48:35.634Z,100434.02
2017-05-07T18:51:03.078Z,100433.17
2017-05-07T18:53:30.538Z,100431.07
2017-05-07T18:55:57.973Z,100427.17
2017-05-07T18:58:25.405Z,100435.73
2017-05-07T19:00:52.882Z,100430.45
2017-05-07T19:03:20.326Z,100438.69
2017-05-07T19:05:47.762Z,100440.31
2017-05-07T19:08:15.217Z,100437.25
2017-05-07T19:10:42.650Z,100448.67
2017-05-07T19:13:10.088Z,100446.15
2017-05-07T19:15:37.549Z,100452.08
2017-05-07T19:18:04.997Z,100454.54
2017-05-07T19:20:32.437Z,100460.19
2017-05-07T19:22:59.906Z,100455.86
2017-05-07T19:25:27.347Z,100451.53
2017-05-07T19:27:54.786Z,100456.89
2017-05-07T19:30:22.244Z,100461.27
2017-05-07T19:32:49.686Z,100461.97
2017-05-07T19:35:17.118Z,100469.12
2017-05-07T19:37:44.593Z,100466.05
2017-05-07T19:40:12.029Z,100470.98
2017-05-07T19:42:39.465Z,100467.50
2017-05-07T19:45:06.927Z,100471.46
2017-05-07T19:47:34.363Z,100478.19
2017-05-07T19:50:01.811Z,100482.16
2017-05-07T19:52:29.274Z,100479.96
2017-05-07T19:54:56.735Z,100478.28
2017-05-07T19:57:24.170Z,100475.22
2017-05-07T19:59:51.629Z,100477.37
2017-05-07T20:02:19.070Z,100477.08
2017-05-07T20:04:46.506Z,100482.84
2017-05-07T20:07:13.953Z,100483.50
2017-05-07T20:09:41.393Z,100491.49
2017-05-07T20:12:09.779Z,100485.78
2017-05-07T20:14:37.234Z,100481.61
2017-05-07T20:17:04.686Z,100487.67
2017-05-07T20:19:32.118Z,100482.39
2017-05-07T20:21:59.577Z,100486.23
2017-05-07T20:24:27.017Z,100486.47
2017-05-07T20:26:54.461Z,100478.95
2017-05-07T20:29:21.926Z,100490.67
2017-05-07T20:31:49.359Z,100493.43
2017-05-07T20:34:16.821Z,100490.48
2017-05-07T20:36:44.285Z,100484.39
2017-05-07T20:39:11.718Z,100488.34
2017-05-07T20:41:39.153Z,100485.28
2017-05-07T20:44:06.609Z,100495.61
2017-05-07T20:46:34.045Z,100492.67
2017-05-07T20:49:01.481Z,100487.27
2017-05-07T20:51:28.938Z,100491.10
2017-05-07T20:53:56.374Z,100488.58
2017-05-07T20:56:33.930Z,100487.89
2017-05-07T20:59:01.434Z,100494.91
2017-05-07T21:01:28.874Z,100489.62
2017-05-07T21:03:56.335Z,100491.00
2017-05-07T21:06:23.773Z,100485.30
2017-05-07T21:08:51.201Z,100489.44
2017-05-07T21:11:18.646Z,100484.99
2017-05-07T21:13:46.082Z,100490.09
2017-05-07T21:16:13.521Z,100487.03
2017-05-07T21:18:40.998Z,100498.20
2017-05-07T21:21:08.434Z,100488.11
2017-05-07T21:23:35.878Z,100490.45
2017-05-07T21:26:03.335Z,100500.12
2017-05-07T21:28:30.766Z,100493.75
2017-05-07T21:30:58.207Z,100496.75
2017-05-07T21:33:25.678Z,100497.44
2017-05-07T21:35:53.110Z,100500.31
2017-05-07T21:38:20.537Z,100497.67
2017-05-07T21:40:49.937Z,100494.49
2017-05-07T21:43:17.374Z,100495.69
2017-05-07T21:45:46.789Z,100499.41
2017-05-07T21:48:14.249Z,100504.63
2017-05-07T21:50:41.706Z,100498.80
2017-05-07T21:53:11.134Z,100501.69
2017-05-07T21:55:38.602Z,100500.12
2017-05-07T21:58:06.030Z,100503.95
2017-05-07T22:00:33.462Z,100505.03
2017-05-07T22:03:00.922Z,100503.50
2017-05-07T22:05:28.362Z,100502.78
2017-05-07T22:07:55.794Z,100505.23
2017-05-07T22:10:23.241Z,100503.67
2017-05-07T22:12:50.686Z,100498.69
2017-05-07T22:15:18.118Z,100501.80
2017-05-07T22:17:45.580Z,100502.45
2017-05-07T22:20:13.006Z,100502.15
2017-05-07T22:22:40.441Z,100502.38
2017-05-07T22:25:07.902Z,100501.69
2017-05-07T22:27:35.334Z,100501.81
2017-05-07T22:30:02.782Z,100499.92
2017-05-07T22:32:30.239Z,100503.12
2017-05-07T22:34:57.670Z,100503.53
2017-05-07T22:37:25.102Z,100502.48
2017-05-07T22:39:52.561Z,100502.69
2017-05-07T22:42:20.000Z,100502.11
2017-05-07T22:44:47.445Z,100499.29
2017-05-07T22:47:14.911Z,100499.62
2017-05-07T22:49:42.458Z,100509.78
2017-05-07T22:52:09.894Z,100504.55
2017-05-07T22:54:37.350Z,100505.81
2017-05-07T22:57:04.790Z,100511.71
2017-05-07T22:59:32.226Z,100504.27
2017-05-07T23:01:59.702Z,100507.75
2017-05-07T23:04:27.139Z,100513.84
2017-05-07T23:06:54.573Z,100511.92
2017-05-07T23:09:22.035Z,100513.31
2017-05-07T23:11:49.479Z,100517.22
2017-05-07T23:14:16.914Z,100514.15
2017-05-07T23:16:44.361Z,100514.57
2017-05-07T23:19:12.503Z,100512.53
2017-05-07T23:21:39.938Z,100516.25
2017-05-07T23:24:07.410Z,100515.30
2017-05-07T23:26:34.847Z,100519.98
2017-05-07T23:29:02.289Z,100514.15
2017-05-07T23:31:29.754Z,100516.07
2017-05-07T23:33:57.185Z,100509.02
2017-05-07T23:36:24.626Z,100514.66
2017-05-07T23:38:52.090Z,100515.08
2017-05-07T23:41:19.536Z,100515.73
2017-05-07T23:43:46.970Z,100513.09
2017-05-07T23:46:14.422Z,100510.45
2017-05-07T23:48:41.863Z,100511.11
2017-05-07T23:51:09.303Z,100504.55
2017-05-07T23:53:36.770Z,100507.31
2017-05-07T23:56:04.207Z,100507.02
2017-05-07T23:58:31.646Z,100508.21
